Time;durP1;ratioP1;P1;durP2;ratioP2;P2;SDS_P1;SDS_P2;PMS_P1;PMS_P2;Temp;Humidity;BMP_temperature;BMP_pressure;BME280_temperature;BME280_humidity;BME280_pressure;Samples;Min_cycle;Max_cycle;Signal;HPM_P1;HPM_P2
2022/10/01 00:00:29;;;;;;;2.47;1.80;;;11.10;99.90;;;;;;6096908;29;20277;-67
2022/10/01 00:03:37;;;;;;;1.95;1.85;;;11.10;99.90;;;;;;6096661;29;20468;-68
2022/10/01 00:06:41;;;;;;;1.90;1.80;;;11.00;99.90;;;;;;6096621;29;20292;-68
2022/10/01 00:09:47;;;;;;;1.90;1.80;;;11.00;99.90;;;;;;6098681;29;20398;-67
2022/10/01 00:12:52;;;;;;;2.15;2.05;;;11.00;99.90;;;;;;6119944;29;20475;-67
2022/10/01 00:15:59;;;;;;;3.08;2.00;;;11.00;99.90;;;;;;6120461;29;20268;-68
2022/10/01 00:19:04;;;;;;;2.65;2.50;;;11.00;99.90;;;;;;6119745;29;20291;-67
2022/10/01 00:22:11;;;;;;;2.30;2.20;;;11.00;99.90;;;;;;6119456;29;20276;-67
2022/10/01 00:25:17;;;;;;;2.60;2.40;;;10.90;99.90;;;;;;6120025;29;20268;-67
2022/10/01 00:28:21;;;;;;;2.97;2.70;;;10.90;99.90;;;;;;6119450;29;20304;-67
2022/10/01 00:31:29;;;;;;;3.67;2.72;;;10.90;99.90;;;;;;6120043;29;20272;-68
2022/10/01 00:34:34;;;;;;;2.58;2.58;;;10.90;99.90;;;;;;6119338;29;20304;-67
2022/10/01 00:37:39;;;;;;;3.00;2.88;;;10.90;99.90;;;;;;6119000;29;20481;-67
2022/10/01 00:40:44;;;;;;;3.17;3.05;;;10.90;99.90;;;;;;6119860;29;20480;-66
2022/10/01 00:43:56;;;;;;;3.58;3.13;;;10.90;99.90;;;;;;6119196;29;20296;-67
2022/10/01 00:47:09;;;;;;;3.30;3.10;;;10.90;99.90;;;;;;6119223;29;20556;-67
2022/10/01 00:50:19;;;;;;;4.10;3.80;;;10.90;99.90;;;;;;6119511;29;20299;-67
2022/10/01 00:53:25;;;;;;;3.10;3.00;;;10.90;99.90;;;;;;6118284;29;20304;-67
2022/10/01 00:56:30;;;;;;;3.60;3.20;;;10.80;99.90;;;;;;6119482;29;20268;-67
2022/10/01 00:59:36;;;;;;;3.58;3.28;;;10.90;99.90;;;;;;6118835;29;20304;-67
2022/10/01 01:02:43;;;;;;;3.45;3.35;;;10.90;99.90;;;;;;6119080;29;20299;-68
2022/10/01 01:05:49;;;;;;;4.38;3.95;;;10.90;99.90;;;;;;6119103;29;20295;-67
2022/10/01 01:08:54;;;;;;;4.43;3.50;;;10.90;99.90;;;;;;6118333;29;20308;-67
2022/10/01 01:12:08;;;;;;;3.85;3.55;;;10.90;99.90;;;;;;6098806;29;20549;-67
2022/10/01 01:15:18;;;;;;;3.67;3.22;;;10.90;99.90;;;;;;6095463;29;20269;-67
2022/10/01 01:18:29;;;;;;;3.67;3.38;;;10.80;99.90;;;;;;6095136;29;20309;-67
2022/10/01 01:21:36;;;;;;;4.25;3.33;;;10.80;99.90;;;;;;6095315;29;20278;-67
2022/10/01 01:24:49;;;;;;;3.53;3.42;;;10.80;99.90;;;;;;6094706;29;20592;-67
2022/10/01 01:28:07;;;;;;;4.43;3.60;;;10.90;99.90;;;;;;6094841;29;20584;-66
2022/10/01 01:31:15;;;;;;;3.47;3.38;;;10.80;99.90;;;;;;6095188;29;20273;-67
2022/10/01 01:34:25;;;;;;;4.60;3.80;;;10.90;99.90;;;;;;6094541;29;20312;-67
2022/10/01 01:37:34;;;;;;;3.35;3.13;;;10.80;99.90;;;;;;6094427;29;20300;-66
2022/10/01 01:40:41;;;;;;;3.33;3.05;;;10.80;99.90;;;;;;6094416;29;20459;-67
2022/10/01 01:43:50;;;;;;;3.45;3.17;;;10.90;99.90;;;;;;6094328;29;20296;-66
2022/10/01 01:46:56;;;;;;;3.35;3.15;;;10.90;99.90;;;;;;6094248;29;20569;-66
2022/10/01 01:50:02;;;;;;;3.30;3.10;;;10.90;99.90;;;;;;6094518;29;20292;-66
2022/10/01 01:53:08;;;;;;;3.97;3.17;;;10.80;99.90;;;;;;6094061;29;20300;-66
2022/10/01 01:56:13;;;;;;;3.10;2.88;;;10.80;99.90;;;;;;6094425;29;20272;-67
2022/10/01 01:59:19;;;;;;;3.03;2.92;;;10.80;99.90;;;;;;6093941;29;20743;-66
2022/10/01 02:02:28;;;;;;;3.10;3.05;;;10.80;99.90;;;;;;6094083;29;20296;-66
2022/10/01 02:05:43;;;;;;;3.40;3.20;;;10.70;99.90;;;;;;6094231;29;20297;-66
2022/10/01 02:08:52;;;;;;;3.75;3.50;;;10.70;99.90;;;;;;6093456;29;20300;-67
2022/10/01 02:12:09;;;;;;;3.35;3.05;;;10.70;99.90;;;;;;6113171;29;20272;-67
2022/10/01 02:15:23;;;;;;;3.20;3.10;;;10.70;99.90;;;;;;6118012;29;20268;-67
2022/10/01 02:18:37;;;;;;;3.33;3.17;;;10.70;99.90;;;;;;6116969;29;20295;-67
2022/10/01 02:21:47;;;;;;;3.65;3.33;;;10.70;99.90;;;;;;6117710;29;20453;-67
2022/10/01 02:24:56;;;;;;;3.15;3.05;;;10.60;99.90;;;;;;6116969;29;20300;-65
2022/10/01 02:28:04;;;;;;;3.17;3.08;;;10.60;99.90;;;;;;6116842;29;20299;-66
2022/10/01 02:31:13;;;;;;;3.40;3.20;;;10.60;99.90;;;;;;6117084;29;20473;-66
2022/10/01 02:34:19;;;;;;;3.17;3.08;;;10.60;99.90;;;;;;6116821;29;20295;-66
2022/10/01 02:37:26;;;;;;;5.40;3.40;;;10.70;99.90;;;;;;6116875;29;20300;-66
2022/10/01 02:40:35;;;;;;;3.70;3.40;;;10.70;99.90;;;;;;6117151;29;20275;-66
2022/10/01 02:43:46;;;;;;;3.53;2.92;;;10.70;99.90;;;;;;6116367;29;20296;-66
2022/10/01 02:46:56;;;;;;;2.70;2.65;;;10.70;99.90;;;;;;6117342;29;20439;-67
2022/10/01 02:50:01;;;;;;;2.92;2.88;;;10.60;99.90;;;;;;6115916;29;20291;-67
2022/10/01 02:53:09;;;;;;;2.50;2.50;;;10.60;99.90;;;;;;6116717;29;20295;-65
2022/10/01 02:57:21;;;;;;;2.72;2.58;;;10.70;99.90;;;;;;6117061;29;20280;-66
2022/10/01 02:59:39;;;;;;;2.42;2.38;;;10.70;99.90;;;;;;6116342;29;20628;-67
2022/10/01 03:02:46;;;;;;;2.45;2.35;;;10.70;99.90;;;;;;6108125;29;20600;-66
2022/10/01 03:05:50;;;;;;;1.90;1.90;;;10.60;99.90;;;;;;6109658;29;20301;-67
2022/10/01 03:08:58;;;;;;;2.08;2.08;;;10.60;99.90;;;;;;6092698;29;20296;-67
2022/10/01 03:12:05;;;;;;;2.60;2.50;;;10.60;99.90;;;;;;6110997;29;20564;-67
2022/10/01 03:15:11;;;;;;;2.38;2.33;;;10.60;99.90;;;;;;6117386;29;20272;-66
2022/10/01 03:18:17;;;;;;;2.58;2.40;;;10.60;99.90;;;;;;6121285;29;20304;-67
2022/10/01 03:21:22;;;;;;;2.15;2.05;;;10.60;99.90;;;;;;6097690;29;20467;-67
2022/10/01 03:24:27;;;;;;;3.08;2.17;;;10.60;99.90;;;;;;6097722;29;20619;-67
2022/10/01 03:27:31;;;;;;;2.65;2.50;;;10.60;99.90;;;;;;6097460;29;20544;-67
2022/10/01 03:30:36;;;;;;;2.15;2.15;;;10.60;99.90;;;;;;6097689;29;20288;-67
2022/10/01 03:33:43;;;;;;;2.10;2.10;;;10.60;99.90;;;;;;6097175;29;20304;-67
2022/10/01 03:36:48;;;;;;;2.28;2.28;;;10.60;99.90;;;;;;6109206;29;20269;-67
2022/10/01 03:39:53;;;;;;;2.15;2.15;;;10.60;99.90;;;;;;6120587;29;20312;-66
2022/10/01 03:42:58;;;;;;;2.10;2.00;;;10.60;99.90;;;;;;6120623;29;20300;-67
2022/10/01 03:46:03;;;;;;;2.03;2.03;;;10.60;99.90;;;;;;6120554;29;20271;-67
2022/10/01 03:49:09;;;;;;;3.15;2.53;;;10.60;99.90;;;;;;6120468;28;20300;-66
2022/10/01 03:52:14;;;;;;;2.38;2.20;;;10.60;99.90;;;;;;6120498;28;20371;-66
2022/10/01 03:55:19;;;;;;;2.72;2.50;;;10.60;99.90;;;;;;6120924;29;20451;-67
2022/10/01 03:58:25;;;;;;;2.30;2.20;;;10.60;99.90;;;;;;6120147;28;20295;-67
2022/10/01 04:01:30;;;;;;;2.40;2.40;;;10.60;99.90;;;;;;6120423;29;20275;-66
2022/10/01 04:04:37;;;;;;;2.80;2.40;;;10.60;99.90;;;;;;6120015;29;20292;-66
2022/10/01 04:07:42;;;;;;;2.72;2.65;;;10.50;99.90;;;;;;6120281;28;20441;-67
2022/10/01 04:10:48;;;;;;;2.60;2.50;;;10.40;99.90;;;;;;6109959;29;20289;-67
2022/10/01 04:13:53;;;;;;;2.70;2.60;;;10.50;99.90;;;;;;6096487;29;20307;-67
2022/10/01 04:16:57;;;;;;;2.85;2.75;;;10.60;99.90;;;;;;6096335;29;20276;-67
2022/10/01 04:20:04;;;;;;;2.80;2.70;;;10.60;99.90;;;;;;6096766;29;20367;-67
2022/10/01 04:23:10;;;;;;;3.10;2.78;;;10.60;99.90;;;;;;6095987;29;20300;-66
2022/10/01 04:26:17;;;;;;;2.70;2.70;;;10.60;99.90;;;;;;6096198;29;20276;-67
2022/10/01 04:29:22;;;;;;;2.67;2.67;;;10.60;99.90;;;;;;6095539;29;20300;-66
2022/10/01 04:32:27;;;;;;;3.10;3.00;;;10.60;99.90;;;;;;6095633;29;20304;-67
2022/10/01 04:35:34;;;;;;;3.47;3.22;;;10.70;99.90;;;;;;6096651;29;20273;-67
2022/10/01 04:38:39;;;;;;;2.85;2.83;;;10.70;99.90;;;;;;6095639;29;20301;-67
2022/10/01 04:41:44;;;;;;;3.00;2.88;;;10.70;99.90;;;;;;6095939;29;20468;-67
2022/10/01 04:44:49;;;;;;;3.22;3.00;;;10.70;99.90;;;;;;6095685;29;20309;-67
2022/10/01 04:47:55;;;;;;;3.10;3.00;;;10.70;99.90;;;;;;6095399;29;20485;-66
2022/10/01 04:51:01;;;;;;;2.72;2.72;;;10.60;99.90;;;;;;6096036;29;20315;-67
2022/10/01 04:54:06;;;;;;;3.28;3.08;;;10.70;99.90;;;;;;6095480;29;20458;-67
2022/10/01 04:57:11;;;;;;;3.03;2.92;;;10.70;99.90;;;;;;6095277;29;20277;-67
2022/10/01 05:00:19;;;;;;;3.22;2.90;;;10.70;99.90;;;;;;6096082;29;20276;-67
2022/10/01 05:03:24;;;;;;;2.75;2.75;;;10.60;99.90;;;;;;6095275;29;20300;-67
2022/10/01 05:06:30;;;;;;;2.90;2.80;;;10.60;99.90;;;;;;6093983;29;20402;-67
2022/10/01 05:09:35;;;;;;;2.88;2.80;;;10.60;99.90;;;;;;6095805;29;20304;-67
2022/10/01 05:12:40;;;;;;;3.65;3.38;;;10.60;99.90;;;;;;6118109;29;20324;-67
2022/10/01 05:15:45;;;;;;;3.22;3.05;;;10.60;99.90;;;;;;6119099;29;20275;-67
2022/10/01 05:18:50;;;;;;;3.30;3.20;;;10.60;99.90;;;;;;6117987;29;20485;-67
2022/10/01 05:21:56;;;;;;;3.42;3.28;;;10.70;99.90;;;;;;6118898;29;20281;-67
2022/10/01 05:25:01;;;;;;;3.22;2.92;;;10.70;99.90;;;;;;6118067;29;20283;-67
2022/10/01 05:31:28;;;;;;;3.13;3.00;;;10.80;99.90;;;;;;6118150;29;20301;-67
2022/10/01 05:34:34;;;;;;;3.42;3.25;;;10.90;99.90;;;;;;6118125;29;20316;-67
2022/10/01 05:37:40;;;;;;;3.65;3.42;;;10.80;99.90;;;;;;6117942;29;20599;-67
2022/10/01 05:40:46;;;;;;;4.10;3.78;;;10.90;99.90;;;;;;6117910;29;20283;-67
2022/10/01 05:43:51;;;;;;;3.80;3.60;;;10.90;99.90;;;;;;6117614;29;20296;-67
2022/10/01 05:46:55;;;;;;;4.22;3.85;;;10.90;99.90;;;;;;6118225;29;20276;-68
2022/10/01 05:50:00;;;;;;;3.75;3.40;;;11.00;99.90;;;;;;6117437;29;20548;-68
2022/10/01 05:53:09;;;;;;;3.55;3.45;;;11.10;99.90;;;;;;6117515;28;20304;-68
2022/10/01 05:56:14;;;;;;;4.18;3.78;;;11.10;99.90;;;;;;6117988;29;20554;-68
2022/10/01 05:59:19;;;;;;;6.65;3.65;;;11.20;99.90;;;;;;6117389;29;20375;-67
2022/10/01 06:02:24;;;;;;;4.72;3.67;;;11.30;99.90;;;;;;6117103;29;20328;-67
2022/10/01 06:05:31;;;;;;;3.35;3.25;;;11.30;99.90;;;;;;6118126;29;20300;-67
2022/10/01 06:08:37;;;;;;;4.88;3.72;;;11.30;99.90;;;;;;6117376;29;20295;-68
2022/10/01 06:11:42;;;;;;;4.95;3.70;;;11.30;99.90;;;;;;6100240;29;20467;-67
2022/10/01 06:14:48;;;;;;;6.63;3.42;;;11.30;99.90;;;;;;6093916;29;20292;-67
2022/10/01 06:17:53;;;;;;;4.63;3.72;;;11.30;99.90;;;;;;6093685;29;20292;-67
2022/10/01 06:20:59;;;;;;;3.58;3.35;;;11.40;99.90;;;;;;6094133;29;20205;-67
2022/10/01 06:24:05;;;;;;;8.23;3.50;;;11.40;99.90;;;;;;6093511;29;20299;-67
2022/10/01 06:27:11;;;;;;;3.90;3.70;;;11.50;99.90;;;;;;6093410;29;20573;-67
2022/10/01 06:30:16;;;;;;;3.20;3.10;;;11.60;99.90;;;;;;6093993;29;20571;-67
2022/10/01 06:33:21;;;;;;;3.50;3.40;;;11.60;99.90;;;;;;6093198;29;20305;-66
2022/10/01 06:36:26;;;;;;;3.15;2.95;;;11.60;99.90;;;;;;6094053;29;20268;-68
2022/10/01 06:39:33;;;;;;;3.97;3.25;;;11.60;99.90;;;;;;6093568;29;20296;-68
2022/10/01 06:42:38;;;;;;;3.50;3.20;;;11.60;99.90;;;;;;6093286;29;20308;-68
2022/10/01 06:45:42;;;;;;;4.75;3.10;;;11.70;99.90;;;;;;6093766;29;20276;-68
2022/10/01 06:48:47;;;;;;;2.75;2.65;;;11.70;99.90;;;;;;6093210;29;20300;-68
2022/10/01 06:55:17;;;;;;;3.10;2.90;;;11.80;99.90;;;;;;6092724;29;20281;-67
2022/10/01 06:58:25;;;;;;;2.97;2.88;;;11.80;99.90;;;;;;6092861;29;20301;-68
2022/10/01 07:01:31;;;;;;;2.80;2.70;;;11.80;99.90;;;;;;6093458;29;20281;-68
2022/10/01 07:04:37;;;;;;;2.90;2.38;;;11.80;99.90;;;;;;6092796;29;20304;-67
2022/10/01 07:07:42;;;;;;;3.53;2.47;;;11.80;99.90;;;;;;6092663;29;20304;-67
2022/10/01 07:10:48;;;;;;;2.75;2.65;;;11.70;99.90;;;;;;6103771;29;20264;-67
2022/10/01 07:13:53;;;;;;;2.63;2.53;;;11.80;99.90;;;;;;6116205;29;20299;-67
2022/10/01 07:16:58;;;;;;;2.40;2.30;;;11.70;99.90;;;;;;6116341;29;20271;-67
2022/10/01 07:20:04;;;;;;;2.70;2.60;;;11.80;99.90;;;;;;6116415;29;20358;-67
2022/10/01 07:23:12;;;;;;;3.42;2.65;;;11.80;99.90;;;;;;6116310;29;20295;-67
2022/10/01 07:26:18;;;;;;;3.28;2.75;;;11.80;99.90;;;;;;6116787;29;20272;-67
2022/10/01 07:29:24;;;;;;;2.47;2.33;;;11.80;99.90;;;;;;6116304;29;20474;-67
2022/10/01 07:32:30;;;;;;;2.85;2.70;;;11.80;99.90;;;;;;6115907;29;20299;-67
2022/10/01 07:35:37;;;;;;;4.63;3.17;;;11.90;99.90;;;;;;6116367;29;20268;-67
2022/10/01 07:38:44;;;;;;;2.63;2.53;;;11.90;99.90;;;;;;6115959;29;20299;-67
2022/10/01 07:41:51;;;;;;;2.47;2.38;;;12.00;99.90;;;;;;6116578;29;20272;-67
2022/10/01 07:44:56;;;;;;;2.28;2.28;;;12.00;99.90;;;;;;6116208;29;20300;-69
2022/10/01 07:48:03;;;;;;;4.22;2.50;;;12.00;99.90;;;;;;6116011;29;20295;-68
2022/10/01 07:51:09;;;;;;;2.78;2.58;;;12.00;99.90;;;;;;6116605;29;20555;-68
2022/10/01 07:54:14;;;;;;;2.70;2.60;;;12.10;99.90;;;;;;6115831;28;20304;-68
2022/10/01 07:57:22;;;;;;;2.88;2.67;;;12.10;99.90;;;;;;6115999;29;20293;-68
2022/10/01 08:00:27;;;;;;;2.30;2.20;;;12.10;99.90;;;;;;6116300;29;20272;-66
2022/10/01 08:03:32;;;;;;;2.55;2.35;;;12.10;99.90;;;;;;6119492;29;20300;-67
2022/10/01 08:06:37;;;;;;;2.58;2.45;;;12.10;99.90;;;;;;6120485;29;20295;-67
2022/10/01 08:09:42;;;;;;;2.53;2.20;;;12.10;99.90;;;;;;6117631;28;20320;-66
2022/10/01 08:12:48;;;;;;;2.33;2.17;;;12.10;99.90;;;;;;6096062;29;20601;-68
2022/10/01 08:15:53;;;;;;;2.55;2.42;;;12.20;99.90;;;;;;6096676;29;20280;-68
2022/10/01 08:18:58;;;;;;;2.38;2.28;;;12.20;99.90;;;;;;6096124;29;20300;-68
2022/10/01 08:22:03;;;;;;;2.55;2.35;;;12.30;99.90;;;;;;6096477;29;20272;-68
2022/10/01 08:25:10;;;;;;;2.33;2.22;;;12.30;99.90;;;;;;6096397;29;20339;-67
2022/10/01 08:28:17;;;;;;;2.10;2.10;;;12.30;99.90;;;;;;6095643;29;20297;-67
2022/10/01 08:31:23;;;;;;;2.40;2.30;;;12.40;99.90;;;;;;6096475;29;20272;-67
2022/10/01 08:34:28;;;;;;;2.35;2.17;;;12.40;99.90;;;;;;6095918;29;20300;-67
2022/10/01 08:37:33;;;;;;;2.30;2.20;;;12.30;99.90;;;;;;6096020;29;20292;-67
2022/10/01 08:40:45;;;;;;;2.72;2.63;;;12.30;99.90;;;;;;6095928;29;20276;-66
2022/10/01 08:43:51;;;;;;;2.88;2.70;;;12.30;99.90;;;;;;6095532;29;20300;-66
2022/10/01 08:47:01;;;;;;;2.67;2.47;;;12.20;99.90;;;;;;6096069;29;20276;-66
2022/10/01 08:50:17;;;;;;;2.55;2.50;;;12.20;99.90;;;;;;6095258;29;20356;-66
2022/10/01 08:53:30;;;;;;;2.90;2.80;;;12.10;99.90;;;;;;6095621;29;20309;-66
2022/10/01 08:56:39;;;;;;;2.70;2.60;;;12.10;99.90;;;;;;6096085;29;20269;-66
2022/10/01 08:59:49;;;;;;;2.80;2.60;;;12.20;99.90;;;;;;6095298;29;20305;-67
2022/10/01 09:02:53;;;;;;;2.40;2.30;;;12.30;99.90;;;;;;6095293;29;20293;-66
2022/10/01 09:06:13;;;;;;;2.50;2.42;;;12.40;99.90;;;;;;6095546;29;20304;-66
2022/10/01 09:09:34;;;;;;;2.30;2.28;;;12.30;99.90;;;;;;6094979;29;20312;-66
2022/10/01 09:12:47;;;;;;;2.22;2.22;;;12.30;99.90;;;;;;6071352;29;20301;-66
2022/10/01 09:16:01;;;;;;;2.70;2.60;;;12.40;99.90;;;;;;6072152;29;20277;-66
2022/10/01 09:19:22;;;;;;;2.42;2.42;;;12.40;99.90;;;;;;6071505;29;20297;-66
2022/10/01 09:22:38;;;;;;;3.15;2.72;;;12.40;99.90;;;;;;6071731;29;20293;-67
2022/10/01 09:25:44;;;;;;;2.53;2.50;;;12.30;99.90;;;;;;6072278;29;20274;-66
2022/10/01 09:28:51;;;;;;;2.70;2.70;;;12.40;99.90;;;;;;6071684;29;20613;-67
2022/10/01 09:32:00;;;;;;;3.15;2.70;;;12.40;99.90;;;;;;6071680;29;20273;-67
2022/10/01 09:35:20;;;;;;;3.00;2.90;;;12.40;99.90;;;;;;6070571;29;20608;-67
2022/10/01 09:38:32;;;;;;;2.45;2.45;;;12.50;99.90;;;;;;6071411;29;20301;-67
2022/10/01 09:41:37;;;;;;;2.40;2.30;;;12.50;99.90;;;;;;6071408;29;20453;-67
2022/10/01 09:44:42;;;;;;;2.95;2.60;;;12.60;99.90;;;;;;6071128;29;20497;-67
2022/10/01 09:47:51;;;;;;;2.33;2.33;;;12.60;99.90;;;;;;6071242;29;20293;-67
2022/10/01 09:50:59;;;;;;;3.78;2.90;;;12.70;99.90;;;;;;6071357;29;20302;-67
2022/10/01 09:54:12;;;;;;;3.00;2.88;;;12.70;99.90;;;;;;6070899;29;20305;-67
2022/10/01 09:57:24;;;;;;;3.60;2.90;;;12.90;99.90;;;;;;6070753;29;20415;-67
2022/10/01 10:00:30;;;;;;;3.05;2.95;;;13.00;99.90;;;;;;6071241;29;20281;-68
2022/10/01 10:03:36;;;;;;;3.47;3.20;;;13.00;99.90;;;;;;6070530;29;20301;-66
2022/10/01 10:06:41;;;;;;;6.03;3.00;;;13.10;99.90;;;;;;6071418;29;20305;-66
2022/10/01 10:09:46;;;;;;;3.60;3.30;;;13.10;99.90;;;;;;6075403;29;20301;-66
2022/10/01 10:12:57;;;;;;;3.50;3.40;;;13.10;99.90;;;;;;6117142;29;20593;-66
2022/10/01 10:16:09;;;;;;;4.13;3.70;;;13.20;99.90;;;;;;6117449;29;20292;-67
2022/10/01 10:19:24;;;;;;;2.70;2.60;;;13.20;99.90;;;;;;6117129;29;20299;-67
2022/10/01 10:22:29;;;;;;;2.00;2.00;;;13.20;99.90;;;;;;6116696;29;20303;-66
2022/10/01 10:25:35;;;;;;;2.35;2.25;;;13.20;99.90;;;;;;6117094;29;20275;-67
2022/10/01 10:28:43;;;;;;;2.22;2.22;;;13.20;99.90;;;;;;6117034;28;20303;-67
2022/10/01 10:31:49;;;;;;;2.50;2.30;;;13.30;99.90;;;;;;6117387;29;20272;-66
2022/10/01 10:34:59;;;;;;;2.00;2.00;;;13.30;99.90;;;;;;6116839;29;20303;-66
2022/10/01 10:38:16;;;;;;;2.20;2.20;;;13.30;99.90;;;;;;6116811;29;20295;-68
2022/10/01 10:41:25;;;;;;;2.40;2.30;;;13.40;99.90;;;;;;6117356;29;20343;-68
2022/10/01 10:44:34;;;;;;;2.28;2.28;;;13.30;99.90;;;;;;6117029;29;20300;-67
2022/10/01 10:47:44;;;;;;;2.88;2.78;;;13.20;99.90;;;;;;6116781;28;20291;-67
2022/10/01 10:50:59;;;;;;;2.83;2.75;;;13.30;99.90;;;;;;6117040;29;20462;-68
2022/10/01 10:54:19;;;;;;;3.85;3.30;;;13.30;99.90;;;;;;6116645;29;20304;-68
2022/10/01 10:57:27;;;;;;;4.00;3.70;;;13.40;99.90;;;;;;6116509;29;20304;-66
2022/10/01 11:00:36;;;;;;;5.38;3.72;;;13.50;99.90;;;;;;6117165;29;20272;-66
2022/10/01 11:03:46;;;;;;;3.40;3.20;;;13.40;99.90;;;;;;6116309;29;20292;-67
2022/10/01 11:07:01;;;;;;;3.25;3.05;;;13.40;99.90;;;;;;6116766;29;20304;-67
2022/10/01 11:10:28;;;;;;;2.97;2.88;;;13.30;99.90;;;;;;6111085;29;20556;-67
2022/10/01 11:14:06;;;;;;;3.70;3.60;;;13.40;99.90;;;;;;6092848;29;20316;-66
2022/10/01 11:17:56;;;;;;;9.10;3.28;;;13.40;99.90;;;;;;6093030;29;20278;-67
2022/10/01 11:21:21;;;;;;;3.22;3.10;;;13.40;99.90;;;;;;6081250;29;20280;-68
2022/10/01 11:24:52;;;;;;;3.75;3.50;;;13.40;99.90;;;;;;6092653;29;20301;-68
2022/10/01 11:28:07;;;;;;;3.53;3.28;;;13.40;99.90;;;;;;6092792;29;20300;-67
2022/10/01 11:31:22;;;;;;;4.85;4.55;;;13.50;99.90;;;;;;6093377;29;20268;-68
2022/10/01 11:35:03;;;;;;;5.10;4.47;;;13.60;99.90;;;;;;6092569;29;20301;-67
2022/10/01 11:38:48;;;;;;;5.10;4.70;;;13.70;99.90;;;;;;6096135;29;20301;-66
2022/10/01 11:41:59;;;;;;;6.82;4.45;;;13.90;99.90;;;;;;6097941;29;20276;-66
2022/10/01 11:45:14;;;;;;;4.78;4.47;;;13.90;99.90;;;;;;6096676;29;20445;-67
2022/10/01 11:48:26;;;;;;;4.22;3.92;;;13.90;99.90;;;;;;6097266;29;20300;-67
2022/10/01 11:51:38;;;;;;;4.70;4.40;;;14.00;99.90;;;;;;6097473;29;20568;-68
2022/10/01 11:54:56;;;;;;;4.13;3.70;;;14.10;99.90;;;;;;6096952;29;20300;-67
2022/10/01 12:01:38;;;;;;;4.78;3.92;;;14.00;99.90;;;;;;6097343;29;20560;-67
2022/10/01 12:04:49;;;;;;;4.13;4.03;;;14.10;99.90;;;;;;6096871;29;20296;-69
2022/10/01 12:07:59;;;;;;;4.20;4.00;;;14.10;99.90;;;;;;6096813;29;20300;-68
2022/10/01 12:11:11;;;;;;;4.43;4.10;;;14.10;99.90;;;;;;6109409;29;20475;-69
2022/10/01 12:14:22;;;;;;;3.95;3.85;;;14.10;99.90;;;;;;6119760;29;20337;-68
2022/10/01 12:17:33;;;;;;;3.35;3.25;;;14.30;99.90;;;;;;6119426;29;20291;-68
2022/10/01 12:20:43;;;;;;;5.93;3.70;;;14.20;99.90;;;;;;6120038;29;20279;-67
2022/10/01 12:23:52;;;;;;;3.85;3.65;;;14.30;99.90;;;;;;6119964;29;20295;-67
2022/10/01 12:27:22;;;;;;;6.32;3.00;;;14.30;99.90;;;;;;6120266;29;20276;-67
2022/10/01 12:30:31;;;;;;;3.08;2.88;;;14.30;99.90;;;;;;6119168;29;20271;-67
2022/10/01 12:34:04;;;;;;;3.97;3.67;;;14.30;99.90;;;;;;6119402;29;20340;-67
2022/10/01 12:37:21;;;;;;;3.55;3.33;;;14.30;99.90;;;;;;6119282;28;20312;-67
2022/10/01 12:40:32;;;;;;;3.40;3.17;;;14.30;99.90;;;;;;6119591;29;20292;-67
2022/10/01 12:43:52;;;;;;;3.35;3.15;;;14.30;99.90;;;;;;6119316;29;20299;-67
2022/10/01 12:47:14;;;;;;;3.20;3.00;;;14.40;99.90;;;;;;6119383;29;20563;-68
2022/10/01 12:50:31;;;;;;;2.72;2.63;;;14.40;99.90;;;;;;6117779;29;20272;-67
2022/10/01 12:53:40;;;;;;;3.40;3.20;;;14.30;99.90;;;;;;6119353;29;20613;-67
2022/10/01 12:56:49;;;;;;;3.25;2.97;;;14.40;99.90;;;;;;6119376;29;20598;-67
2022/10/01 13:00:06;;;;;;;3.10;2.72;;;14.40;99.90;;;;;;6118796;29;20311;-66
2022/10/01 13:03:36;;;;;;;5.10;3.03;;;14.40;99.90;;;;;;6118614;29;20300;-66
2022/10/01 13:06:53;;;;;;;4.30;2.60;;;14.50;99.90;;;;;;6119317;29;20308;-66
2022/10/01 13:10:12;;;;;;;2.38;2.28;;;14.40;99.90;;;;;;6114018;29;20617;-68
2022/10/01 13:13:21;;;;;;;2.70;2.60;;;14.40;99.90;;;;;;6094760;29;20601;-67
2022/10/01 13:16:31;;;;;;;2.58;2.38;;;14.40;99.90;;;;;;6095405;29;20292;-67
2022/10/01 13:19:45;;;;;;;2.33;2.22;;;14.40;99.90;;;;;;6095114;29;20312;-68
2022/10/01 13:22:54;;;;;;;3.25;2.65;;;14.40;99.90;;;;;;6094992;29;20293;-68
2022/10/01 13:26:06;;;;;;;1.98;1.90;;;14.50;99.90;;;;;;6094907;29;20297;-67
2022/10/01 13:29:26;;;;;;;2.33;2.22;;;14.50;99.90;;;;;;6094700;29;20296;-68
2022/10/01 13:32:33;;;;;;;2.25;2.20;;;14.50;99.90;;;;;;6094424;29;20292;-68
2022/10/01 13:35:41;;;;;;;2.30;2.10;;;14.70;99.90;;;;;;6094902;29;20568;-66
2022/10/01 13:38:46;;;;;;;2.90;2.80;;;15.60;99.90;;;;;;6094301;29;20300;-66
2022/10/01 13:41:57;;;;;;;2.35;2.25;;;15.40;99.90;;;;;;6094849;29;20272;-68
2022/10/01 13:45:05;;;;;;;2.53;2.42;;;15.10;99.90;;;;;;6093884;29;20276;-67
2022/10/01 13:48:20;;;;;;;2.55;2.45;;;15.00;99.90;;;;;;6094026;29;20309;-68
2022/10/01 13:51:36;;;;;;;2.38;2.28;;;14.90;99.90;;;;;;6094745;29;20272;-69
2022/10/01 13:54:47;;;;;;;2.30;2.30;;;14.80;99.90;;;;;;6094128;29;20297;-68
2022/10/01 13:58:03;;;;;;;2.40;2.30;;;14.70;99.90;;;;;;6093902;29;20308;-68
2022/10/01 14:01:30;;;;;;;5.55;3.00;;;14.60;99.90;;;;;;6093981;29;20268;-69
2022/10/01 14:04:39;;;;;;;2.70;2.60;;;14.60;99.90;;;;;;6093924;29;20297;-68
2022/10/01 14:07:47;;;;;;;4.72;2.47;;;14.60;99.90;;;;;;6093744;29;20300;-68
2022/10/01 14:17:48;;;;;;;2.78;2.67;;;14.50;99.90;;;;;;6116582;29;20300;-68
2022/10/01 14:20:59;;;;;;;2.72;2.63;;;14.40;99.90;;;;;;6117312;29;20479;-68
2022/10/01 14:24:17;;;;;;;2.80;2.70;;;14.40;99.90;;;;;;6117174;29;20296;-68
2022/10/01 14:27:29;;;;;;;3.10;3.00;;;14.30;99.90;;;;;;6116435;29;20295;-68
2022/10/01 14:30:41;;;;;;;3.28;3.20;;;14.30;99.90;;;;;;6116910;29;20277;-68
2022/10/01 14:34:20;;;;;;;3.05;2.95;;;14.30;99.90;;;;;;6116793;29;20299;-69
2022/10/01 14:37:26;;;;;;;3.55;3.42;;;14.30;99.90;;;;;;6116600;28;20308;-70
2022/10/01 14:40:38;;;;;;;5.07;4.65;;;14.20;99.90;;;;;;6116990;29;20276;-68
2022/10/01 14:43:43;;;;;;;4.80;4.50;;;14.20;99.90;;;;;;6116929;29;20316;-68
2022/10/01 14:46:48;;;;;;;4.15;3.85;;;14.10;99.90;;;;;;6117407;29;20271;-68
2022/10/01 14:49:54;;;;;;;6.93;4.35;;;14.00;99.90;;;;;;6116836;29;20299;-68
2022/10/01 14:52:59;;;;;;;4.25;4.07;;;14.00;99.90;;;;;;6116592;29;20599;-67
2022/10/01 14:56:08;;;;;;;4.63;4.32;;;14.00;99.90;;;;;;6116754;29;20280;-66
2022/10/01 14:59:21;;;;;;;5.03;4.57;;;14.00;99.90;;;;;;6116938;29;20296;-67
2022/10/01 15:02:27;;;;;;;4.85;4.55;;;14.00;99.90;;;;;;6116579;29;20291;-67
2022/10/01 15:05:34;;;;;;;5.47;4.28;;;13.90;99.90;;;;;;6116665;29;20304;-67
2022/10/01 15:08:40;;;;;;;5.57;4.57;;;13.90;99.90;;;;;;6116255;28;20295;-67
2022/10/01 15:11:50;;;;;;;5.03;4.72;;;13.90;99.90;;;;;;6100082;29;20264;-66
2022/10/01 15:14:55;;;;;;;5.20;4.90;;;13.80;99.90;;;;;;6097587;29;20319;-66
2022/10/01 15:18:03;;;;;;;5.40;5.10;;;13.80;99.90;;;;;;6097573;29;20296;-66
2022/10/01 15:21:16;;;;;;;7.85;5.25;;;13.80;99.90;;;;;;6098134;29;20268;-67
2022/10/01 15:24:25;;;;;;;5.53;5.07;;;13.80;99.90;;;;;;6097453;29;20300;-67
2022/10/01 15:27:31;;;;;;;5.95;5.40;;;13.80;99.90;;;;;;6097653;29;20304;-66
2022/10/01 15:30:37;;;;;;;5.57;5.35;;;13.70;99.90;;;;;;6097905;29;20277;-67
2022/10/01 15:33:42;;;;;;;5.53;5.13;;;13.70;99.90;;;;;;6097170;29;20300;-68
2022/10/01 15:36:48;;;;;;;6.13;5.63;;;13.70;99.90;;;;;;6097405;29;20296;-66
2022/10/01 15:39:53;;;;;;;7.40;6.05;;;13.70;99.90;;;;;;6097318;29;20304;-67
2022/10/01 15:43:26;;;;;;;5.88;5.47;;;13.50;99.90;;;;;;6097182;29;20292;-67
2022/10/01 15:46:33;;;;;;;8.18;6.50;;;13.50;99.90;;;;;;6103564;29;20277;-67
2022/10/01 15:49:40;;;;;;;8.13;7.38;;;13.40;99.90;;;;;;6097113;29;20372;-66
2022/10/01 15:52:53;;;;;;;8.43;7.43;;;13.40;99.90;;;;;;6096587;29;20297;-66
2022/10/01 15:55:59;;;;;;;7.25;6.60;;;13.40;99.90;;;;;;6097502;29;20268;-67
2022/10/01 15:59:16;;;;;;;7.18;6.78;;;13.40;99.90;;;;;;6096566;29;20304;-67
2022/10/01 16:02:24;;;;;;;7.07;6.63;;;13.40;99.90;;;;;;6096865;29;20495;-66
2022/10/01 16:05:37;;;;;;;6.50;5.78;;;13.30;99.90;;;;;;6096797;29;20305;-67
2022/10/01 16:08:58;;;;;;;6.95;6.45;;;13.30;99.90;;;;;;6096543;29;20300;-68
2022/10/01 16:12:16;;;;;;;7.43;6.40;;;13.30;99.90;;;;;;6116913;29;20273;-66
2022/10/01 16:15:27;;;;;;;6.82;5.55;;;13.30;99.90;;;;;;6120552;29;20276;-66
2022/10/01 16:18:33;;;;;;;7.65;5.78;;;13.30;99.90;;;;;;6120226;29;20323;-67
2022/10/01 16:21:40;;;;;;;5.68;5.35;;;13.20;99.90;;;;;;6120317;29;20281;-67
2022/10/01 16:24:47;;;;;;;6.72;6.22;;;13.20;99.90;;;;;;6119902;28;20299;-67
2022/10/01 16:27:55;;;;;;;7.15;6.50;;;13.20;99.90;;;;;;6119540;28;20292;-68
2022/10/01 16:31:04;;;;;;;6.45;6.05;;;13.20;99.90;;;;;;6120343;29;20438;-67
2022/10/01 16:34:11;;;;;;;6.70;6.10;;;13.10;99.90;;;;;;6119673;28;20300;-67
2022/10/01 16:37:16;;;;;;;6.80;6.07;;;13.10;99.90;;;;;;6119111;29;20271;-68
2022/10/01 16:40:24;;;;;;;6.45;5.80;;;13.00;99.90;;;;;;6119478;29;20276;-68
2022/10/01 16:43:30;;;;;;;6.25;5.88;;;13.00;99.90;;;;;;6119368;29;20299;-67